sensor_id;sensor_type;location;lat;lon;timestamp;temperature;humidity
25436;DHT22;13363;52.772;-3.890;2022-07-12T00:00:54;21.40;99.90
25436;DHT22;13363;52.772;-3.890;2022-07-12T00:03:21;21.30;99.90
25436;DHT22;13363;52.772;-3.890;2022-07-12T00:05:46;21.40;99.90
25436;DHT22;13363;52.772;-3.890;2022-07-12T00:08:12;21.30;99.90
25436;DHT22;13363;52.772;-3.890;2022-07-12T00:10:38;21.30;99.90
25436;DHT22;13363;52.772;-3.890;2022-07-12T00:13:04;21.30;99.90
25436;DHT22;13363;52.772;-3.890;2022-07-12T00:15:30;21.30;99.90
25436;DHT22;13363;52.772;-3.890;2022-07-12T00:17:56;21.10;99.90
25436;DHT22;13363;52.772;-3.890;2022-07-12T00:20:22;21.10;99.90
25436;DHT22;13363;52.772;-3.890;2022-07-12T00:22:48;21.00;99.90
25436;DHT22;13363;52.772;-3.890;2022-07-12T00:25:14;21.00;99.90
25436;DHT22;13363;52.772;-3.890;2022-07-12T00:27:40;21.00;99.90
25436;DHT22;13363;52.772;-3.890;2022-07-12T00:30:08;20.90;99.90
25436;DHT22;13363;52.772;-3.890;2022-07-12T00:32:34;20.80;99.90
25436;DHT22;13363;52.772;-3.890;2022-07-12T00:35:00;20.80;99.90
25436;DHT22;13363;52.772;-3.890;2022-07-12T00:37:28;20.70;99.90
25436;DHT22;13363;52.772;-3.890;2022-07-12T00:39:55;20.70;99.90
25436;DHT22;13363;52.772;-3.890;2022-07-12T00:42:21;20.70;99.90
25436;DHT22;13363;52.772;-3.890;2022-07-12T00:44:46;20.80;99.90
25436;DHT22;13363;52.772;-3.890;2022-07-12T00:47:30;20.80;99.90
25436;DHT22;13363;52.772;-3.890;2022-07-12T00:49:57;20.80;99.90
25436;DHT22;13363;52.772;-3.890;2022-07-12T00:52:23;20.90;99.90
25436;DHT22;13363;52.772;-3.890;2022-07-12T00:54:49;20.80;99.90
25436;DHT22;13363;52.772;-3.890;2022-07-12T00:57:16;20.80;99.90
25436;DHT22;13363;52.772;-3.890;2022-07-12T00:59:42;20.80;99.90
25436;DHT22;13363;52.772;-3.890;2022-07-12T01:02:08;20.80;99.90
25436;DHT22;13363;52.772;-3.890;2022-07-12T01:04:35;20.80;99.90
25436;DHT22;13363;52.772;-3.890;2022-07-12T01:07:01;20.70;99.90
25436;DHT22;13363;52.772;-3.890;2022-07-12T01:09:28;20.80;99.90
25436;DHT22;13363;52.772;-3.890;2022-07-12T01:11:54;20.70;99.90
25436;DHT22;13363;52.772;-3.890;2022-07-12T01:14:20;20.70;99.90
25436;DHT22;13363;52.772;-3.890;2022-07-12T01:16:46;20.70;99.90
25436;DHT22;13363;52.772;-3.890;2022-07-12T01:19:13;20.70;99.90
25436;DHT22;13363;52.772;-3.890;2022-07-12T01:21:47;20.80;99.90
25436;DHT22;13363;52.772;-3.890;2022-07-12T01:24:14;20.80;99.90
25436;DHT22;13363;52.772;-3.890;2022-07-12T01:26:41;20.80;99.90
25436;DHT22;13363;52.772;-3.890;2022-07-12T01:29:07;20.90;99.90
25436;DHT22;13363;52.772;-3.890;2022-07-12T01:31:34;20.90;99.90
25436;DHT22;13363;52.772;-3.890;2022-07-12T01:34:02;20.90;99.90
25436;DHT22;13363;52.772;-3.890;2022-07-12T01:36:29;20.90;99.90
25436;DHT22;13363;52.772;-3.890;2022-07-12T01:41:23;20.80;99.90
25436;DHT22;13363;52.772;-3.890;2022-07-12T01:43:50;20.90;99.90
25436;DHT22;13363;52.772;-3.890;2022-07-12T01:46:16;20.80;99.90
25436;DHT22;13363;52.772;-3.890;2022-07-12T01:48:42;20.90;99.90
25436;DHT22;13363;52.772;-3.890;2022-07-12T01:51:08;20.90;99.90
25436;DHT22;13363;52.772;-3.890;2022-07-12T01:53:36;20.90;99.90
25436;DHT22;13363;52.772;-3.890;2022-07-12T01:58:31;20.90;99.90
25436;DHT22;13363;52.772;-3.890;2022-07-12T02:00:58;20.90;99.90
25436;DHT22;13363;52.772;-3.890;2022-07-12T02:03:24;20.90;99.90
25436;DHT22;13363;52.772;-3.890;2022-07-12T02:05:50;20.90;99.90
25436;DHT22;13363;52.772;-3.890;2022-07-12T02:08:16;20.90;99.90
25436;DHT22;13363;52.772;-3.890;2022-07-12T02:10:43;20.90;99.90
25436;DHT22;13363;52.772;-3.890;2022-07-12T02:13:09;20.80;99.90
25436;DHT22;13363;52.772;-3.890;2022-07-12T02:15:36;20.90;99.90
25436;DHT22;13363;52.772;-3.890;2022-07-12T02:18:02;20.90;99.90
25436;DHT22;13363;52.772;-3.890;2022-07-12T02:20:28;20.90;99.90
25436;DHT22;13363;52.772;-3.890;2022-07-12T02:22:54;20.90;99.90
25436;DHT22;13363;52.772;-3.890;2022-07-12T02:25:20;20.90;99.90
25436;DHT22;13363;52.772;-3.890;2022-07-12T02:27:46;20.80;99.90
25436;DHT22;13363;52.772;-3.890;2022-07-12T02:30:11;20.80;99.90
25436;DHT22;13363;52.772;-3.890;2022-07-12T02:32:38;20.80;99.90
25436;DHT22;13363;52.772;-3.890;2022-07-12T02:35:05;20.80;99.90
25436;DHT22;13363;52.772;-3.890;2022-07-12T02:37:31;20.80;99.90
25436;DHT22;13363;52.772;-3.890;2022-07-12T02:39:57;20.80;99.90
25436;DHT22;13363;52.772;-3.890;2022-07-12T02:42:41;20.80;99.90
25436;DHT22;13363;52.772;-3.890;2022-07-12T02:45:07;20.80;99.90
25436;DHT22;13363;52.772;-3.890;2022-07-12T02:47:38;20.80;99.90
25436;DHT22;13363;52.772;-3.890;2022-07-12T02:50:06;20.70;99.90
25436;DHT22;13363;52.772;-3.890;2022-07-12T02:52:33;20.70;99.90
25436;DHT22;13363;52.772;-3.890;2022-07-12T02:54:59;20.70;99.90
25436;DHT22;13363;52.772;-3.890;2022-07-12T02:57:25;20.70;99.90
25436;DHT22;13363;52.772;-3.890;2022-07-12T02:59:51;20.70;99.90
25436;DHT22;13363;52.772;-3.890;2022-07-12T03:02:16;20.80;99.90
25436;DHT22;13363;52.772;-3.890;2022-07-12T03:04:42;20.80;99.90
25436;DHT22;13363;52.772;-3.890;2022-07-12T03:07:08;20.80;99.90
25436;DHT22;13363;52.772;-3.890;2022-07-12T03:09:34;20.80;99.90
25436;DHT22;13363;52.772;-3.890;2022-07-12T03:12:01;20.70;99.90
25436;DHT22;13363;52.772;-3.890;2022-07-12T03:14:26;20.70;99.90
25436;DHT22;13363;52.772;-3.890;2022-07-12T03:16:52;20.70;99.90
25436;DHT22;13363;52.772;-3.890;2022-07-12T03:19:18;20.70;99.90
25436;DHT22;13363;52.772;-3.890;2022-07-12T03:21:44;20.60;99.90
25436;DHT22;13363;52.772;-3.890;2022-07-12T03:24:10;20.60;99.90
25436;DHT22;13363;52.772;-3.890;2022-07-12T03:26:36;20.60;99.90
25436;DHT22;13363;52.772;-3.890;2022-07-12T03:29:02;20.60;99.90
25436;DHT22;13363;52.772;-3.890;2022-07-12T03:31:28;20.60;99.90
25436;DHT22;13363;52.772;-3.890;2022-07-12T03:33:54;20.60;99.90
25436;DHT22;13363;52.772;-3.890;2022-07-12T03:36:20;20.60;99.90
25436;DHT22;13363;52.772;-3.890;2022-07-12T03:38:46;20.50;99.90
25436;DHT22;13363;52.772;-3.890;2022-07-12T03:41:12;20.50;99.90
25436;DHT22;13363;52.772;-3.890;2022-07-12T03:43:38;20.50;99.90
25436;DHT22;13363;52.772;-3.890;2022-07-12T03:46:04;20.50;99.90
25436;DHT22;13363;52.772;-3.890;2022-07-12T03:48:30;20.50;99.90
25436;DHT22;13363;52.772;-3.890;2022-07-12T03:50:55;20.40;99.90
25436;DHT22;13363;52.772;-3.890;2022-07-12T03:53:22;20.40;99.90
25436;DHT22;13363;52.772;-3.890;2022-07-12T03:58:14;20.50;99.90
25436;DHT22;13363;52.772;-3.890;2022-07-12T04:00:40;20.40;99.90
25436;DHT22;13363;52.772;-3.890;2022-07-12T04:03:09;20.40;99.90
25436;DHT22;13363;52.772;-3.890;2022-07-12T04:05:36;20.50;99.90
25436;DHT22;13363;52.772;-3.890;2022-07-12T04:08:02;20.50;99.90
25436;DHT22;13363;52.772;-3.890;2022-07-12T04:10:28;20.50;99.90
25436;DHT22;13363;52.772;-3.890;2022-07-12T04:12:54;20.50;99.90
25436;DHT22;13363;52.772;-3.890;2022-07-12T04:15:20;20.50;99.90
25436;DHT22;13363;52.772;-3.890;2022-07-12T04:17:46;20.50;99.90
25436;DHT22;13363;52.772;-3.890;2022-07-12T04:20:12;20.50;99.90
25436;DHT22;13363;52.772;-3.890;2022-07-12T04:22:39;20.50;99.90
25436;DHT22;13363;52.772;-3.890;2022-07-12T04:25:08;20.40;99.90
25436;DHT22;13363;52.772;-3.890;2022-07-12T04:27:35;20.50;99.90
25436;DHT22;13363;52.772;-3.890;2022-07-12T04:30:02;20.50;99.90
25436;DHT22;13363;52.772;-3.890;2022-07-12T04:32:28;20.50;99.90
25436;DHT22;13363;52.772;-3.890;2022-07-12T04:34:54;20.50;99.90
25436;DHT22;13363;52.772;-3.890;2022-07-12T04:37:19;20.50;99.90
25436;DHT22;13363;52.772;-3.890;2022-07-12T04:39:45;20.50;99.90
25436;DHT22;13363;52.772;-3.890;2022-07-12T04:42:11;20.40;99.90
25436;DHT22;13363;52.772;-3.890;2022-07-12T04:44:37;20.40;99.90
25436;DHT22;13363;52.772;-3.890;2022-07-12T04:47:03;20.40;99.90
25436;DHT22;13363;52.772;-3.890;2022-07-12T04:49:31;20.40;99.90
25436;DHT22;13363;52.772;-3.890;2022-07-12T04:51:58;20.40;99.90
25436;DHT22;13363;52.772;-3.890;2022-07-12T04:54:24;20.50;99.90
25436;DHT22;13363;52.772;-3.890;2022-07-12T04:56:50;20.40;99.90
25436;DHT22;13363;52.772;-3.890;2022-07-12T04:59:15;20.40;99.90
25436;DHT22;13363;52.772;-3.890;2022-07-12T05:01:41;20.40;99.90
25436;DHT22;13363;52.772;-3.890;2022-07-12T05:04:07;20.40;99.90
25436;DHT22;13363;52.772;-3.890;2022-07-12T05:06:33;20.40;99.90
25436;DHT22;13363;52.772;-3.890;2022-07-12T05:08:59;20.40;99.90
25436;DHT22;13363;52.772;-3.890;2022-07-12T05:11:25;20.50;99.90
25436;DHT22;13363;52.772;-3.890;2022-07-12T05:13:50;20.50;99.90
25436;DHT22;13363;52.772;-3.890;2022-07-12T05:16:16;20.50;99.90
25436;DHT22;13363;52.772;-3.890;2022-07-12T05:18:42;20.60;99.90
25436;DHT22;13363;52.772;-3.890;2022-07-12T05:21:08;20.60;99.90
25436;DHT22;13363;52.772;-3.890;2022-07-12T05:23:34;20.60;99.90
25436;DHT22;13363;52.772;-3.890;2022-07-12T05:26:01;20.60;99.90
25436;DHT22;13363;52.772;-3.890;2022-07-12T05:28:27;20.70;99.90
25436;DHT22;13363;52.772;-3.890;2022-07-12T05:30:53;20.70;99.90
25436;DHT22;13363;52.772;-3.890;2022-07-12T05:33:19;20.70;99.90
25436;DHT22;13363;52.772;-3.890;2022-07-12T05:35:45;20.80;99.90
25436;DHT22;13363;52.772;-3.890;2022-07-12T05:38:10;20.90;99.90
25436;DHT22;13363;52.772;-3.890;2022-07-12T05:40:36;20.90;99.90
25436;DHT22;13363;52.772;-3.890;2022-07-12T05:43:02;21.00;99.90
25436;DHT22;13363;52.772;-3.890;2022-07-12T05:45:28;21.10;99.90
25436;DHT22;13363;52.772;-3.890;2022-07-12T05:47:54;21.10;99.90
25436;DHT22;13363;52.772;-3.890;2022-07-12T05:50:20;21.10;99.90
25436;DHT22;13363;52.772;-3.890;2022-07-12T05:52:45;21.10;99.90
25436;DHT22;13363;52.772;-3.890;2022-07-12T05:55:30;21.10;99.90
25436;DHT22;13363;52.772;-3.890;2022-07-12T05:57:56;21.10;99.90
25436;DHT22;13363;52.772;-3.890;2022-07-12T06:00:21;21.00;99.90
25436;DHT22;13363;52.772;-3.890;2022-07-12T06:02:47;21.00;99.90
25436;DHT22;13363;52.772;-3.890;2022-07-12T06:05:13;21.00;99.90
25436;DHT22;13363;52.772;-3.890;2022-07-12T06:07:39;21.00;99.90
25436;DHT22;13363;52.772;-3.890;2022-07-12T06:10:05;21.10;99.90
25436;DHT22;13363;52.772;-3.890;2022-07-12T06:12:31;21.20;99.90
25436;DHT22;13363;52.772;-3.890;2022-07-12T06:14:57;21.20;99.90
25436;DHT22;13363;52.772;-3.890;2022-07-12T06:17:23;21.30;99.90
25436;DHT22;13363;52.772;-3.890;2022-07-12T06:19:49;21.30;99.90
25436;DHT22;13363;52.772;-3.890;2022-07-12T06:22:15;21.40;99.90
25436;DHT22;13363;52.772;-3.890;2022-07-12T06:24:41;21.30;99.90
25436;DHT22;13363;52.772;-3.890;2022-07-12T06:27:07;21.30;99.90
25436;DHT22;13363;52.772;-3.890;2022-07-12T06:29:33;21.30;99.90
25436;DHT22;13363;52.772;-3.890;2022-07-12T06:31:59;21.20;99.90
25436;DHT22;13363;52.772;-3.890;2022-07-12T06:34:24;21.20;99.90
25436;DHT22;13363;52.772;-3.890;2022-07-12T06:36:50;21.30;99.90
25436;DHT22;13363;52.772;-3.890;2022-07-12T06:39:17;21.30;99.90
25436;DHT22;13363;52.772;-3.890;2022-07-12T06:41:43;21.10;99.90
25436;DHT22;13363;52.772;-3.890;2022-07-12T06:44:09;21.10;99.90
25436;DHT22;13363;52.772;-3.890;2022-07-12T06:46:35;21.10;99.90
25436;DHT22;13363;52.772;-3.890;2022-07-12T06:49:00;21.10;99.90
25436;DHT22;13363;52.772;-3.890;2022-07-12T06:51:26;21.10;99.90
25436;DHT22;13363;52.772;-3.890;2022-07-12T06:53:52;21.20;99.90
25436;DHT22;13363;52.772;-3.890;2022-07-12T06:56:18;21.30;99.90
25436;DHT22;13363;52.772;-3.890;2022-07-12T06:58:44;21.30;99.90
25436;DHT22;13363;52.772;-3.890;2022-07-12T07:01:10;21.40;99.90
25436;DHT22;13363;52.772;-3.890;2022-07-12T07:03:36;21.50;99.90
25436;DHT22;13363;52.772;-3.890;2022-07-12T07:06:02;21.50;99.90
25436;DHT22;13363;52.772;-3.890;2022-07-12T07:08:28;21.60;99.90
25436;DHT22;13363;52.772;-3.890;2022-07-12T07:10:53;21.60;99.90
25436;DHT22;13363;52.772;-3.890;2022-07-12T07:13:19;21.70;99.90
25436;DHT22;13363;52.772;-3.890;2022-07-12T07:15:45;21.80;99.90
25436;DHT22;13363;52.772;-3.890;2022-07-12T07:18:11;21.90;99.90
25436;DHT22;13363;52.772;-3.890;2022-07-12T07:20:37;22.00;99.90
25436;DHT22;13363;52.772;-3.890;2022-07-12T07:23:06;22.00;99.90
25436;DHT22;13363;52.772;-3.890;2022-07-12T07:25:32;21.80;99.90
25436;DHT22;13363;52.772;-3.890;2022-07-12T07:27:58;21.90;99.90
25436;DHT22;13363;52.772;-3.890;2022-07-12T07:30:24;22.00;99.90
25436;DHT22;13363;52.772;-3.890;2022-07-12T07:33:08;22.10;99.90
25436;DHT22;13363;52.772;-3.890;2022-07-12T07:35:34;22.20;99.90
25436;DHT22;13363;52.772;-3.890;2022-07-12T07:38:00;22.30;99.90
25436;DHT22;13363;52.772;-3.890;2022-07-12T07:40:26;22.30;99.90
25436;DHT22;13363;52.772;-3.890;2022-07-12T07:42:52;22.40;99.90
25436;DHT22;13363;52.772;-3.890;2022-07-12T07:45:18;22.40;99.90
25436;DHT22;13363;52.772;-3.890;2022-07-12T07:47:48;22.50;99.90
25436;DHT22;13363;52.772;-3.890;2022-07-12T07:50:15;22.40;99.90
25436;DHT22;13363;52.772;-3.890;2022-07-12T07:52:41;22.40;99.90
25436;DHT22;13363;52.772;-3.890;2022-07-12T07:55:07;22.40;99.90
25436;DHT22;13363;52.772;-3.890;2022-07-12T07:57:33;22.50;99.90
25436;DHT22;13363;52.772;-3.890;2022-07-12T07:59:59;22.50;99.90
25436;DHT22;13363;52.772;-3.890;2022-07-12T08:02:25;22.60;99.90
25436;DHT22;13363;52.772;-3.890;2022-07-12T08:04:51;22.80;99.90
25436;DHT22;13363;52.772;-3.890;2022-07-12T08:07:17;22.70;99.90
25436;DHT22;13363;52.772;-3.890;2022-07-12T08:09:43;22.80;99.90
25436;DHT22;13363;52.772;-3.890;2022-07-12T08:12:09;22.90;99.90
25436;DHT22;13363;52.772;-3.890;2022-07-12T08:14:35;22.80;99.90
25436;DHT22;13363;52.772;-3.890;2022-07-12T08:17:00;22.80;99.90
25436;DHT22;13363;52.772;-3.890;2022-07-12T08:19:26;22.90;99.90
25436;DHT22;13363;52.772;-3.890;2022-07-12T08:21:52;23.00;99.90
25436;DHT22;13363;52.772;-3.890;2022-07-12T08:24:18;22.80;99.90
25436;DHT22;13363;52.772;-3.890;2022-07-12T08:26:44;22.80;99.90
25436;DHT22;13363;52.772;-3.890;2022-07-12T08:29:10;22.90;99.90
25436;DHT22;13363;52.772;-3.890;2022-07-12T08:31:35;22.90;99.90
25436;DHT22;13363;52.772;-3.890;2022-07-12T08:34:02;22.80;99.90
25436;DHT22;13363;52.772;-3.890;2022-07-12T08:36:28;22.60;99.90
25436;DHT22;13363;52.772;-3.890;2022-07-12T08:38:54;22.40;99.90
25436;DHT22;13363;52.772;-3.890;2022-07-12T08:41:19;22.40;99.90
25436;DHT22;13363;52.772;-3.890;2022-07-12T08:43:46;22.50;99.90
25436;DHT22;13363;52.772;-3.890;2022-07-12T08:46:13;22.50;99.90
25436;DHT22;13363;52.772;-3.890;2022-07-12T08:48:40;22.60;99.90
25436;DHT22;13363;52.772;-3.890;2022-07-12T08:51:08;22.60;99.90
25436;DHT22;13363;52.772;-3.890;2022-07-12T08:53:35;22.50;99.90
25436;DHT22;13363;52.772;-3.890;2022-07-12T08:56:04;22.40;99.90
25436;DHT22;13363;52.772;-3.890;2022-07-12T08:58:30;22.20;99.90
25436;DHT22;13363;52.772;-3.890;2022-07-12T09:00:56;22.20;99.90
25436;DHT22;13363;52.772;-3.890;2022-07-12T09:03:23;22.10;99.90
25436;DHT22;13363;52.772;-3.890;2022-07-12T09:05:54;22.40;99.90
25436;DHT22;13363;52.772;-3.890;2022-07-12T09:08:31;22.50;99.90
25436;DHT22;13363;52.772;-3.890;2022-07-12T09:11:02;22.50;99.90
25436;DHT22;13363;52.772;-3.890;2022-07-12T09:13:53;22.60;99.90
25436;DHT22;13363;52.772;-3.890;2022-07-12T09:16:22;22.70;99.90
25436;DHT22;13363;52.772;-3.890;2022-07-12T09:18:49;22.80;99.90
25436;DHT22;13363;52.772;-3.890;2022-07-12T09:21:26;22.90;99.90
25436;DHT22;13363;52.772;-3.890;2022-07-12T09:23:57;23.10;99.90
25436;DHT22;13363;52.772;-3.890;2022-07-12T09:26:30;23.30;99.90
25436;DHT22;13363;52.772;-3.890;2022-07-12T09:29:05;23.50;99.90
25436;DHT22;13363;52.772;-3.890;2022-07-12T09:32:06;23.50;99.90
25436;DHT22;13363;52.772;-3.890;2022-07-12T09:34:59;23.70;99.90
25436;DHT22;13363;52.772;-3.890;2022-07-12T09:37:44;24.00;99.90
25436;DHT22;13363;52.772;-3.890;2022-07-12T09:40:10;24.20;99.90
25436;DHT22;13363;52.772;-3.890;2022-07-12T09:42:37;24.10;99.90
25436;DHT22;13363;52.772;-3.890;2022-07-12T09:45:06;23.90;99.90
25436;DHT22;13363;52.772;-3.890;2022-07-12T09:49:59;23.90;99.90
25436;DHT22;13363;52.772;-3.890;2022-07-12T09:52:26;24.00;99.90
25436;DHT22;13363;52.772;-3.890;2022-07-12T09:54:55;24.20;99.90
25436;DHT22;13363;52.772;-3.890;2022-07-12T09:57:31;24.40;99.90
25436;DHT22;13363;52.772;-3.890;2022-07-12T09:59:59;24.70;99.90
25436;DHT22;13363;52.772;-3.890;2022-07-12T10:02:26;24.60;99.90
25436;DHT22;13363;52.772;-3.890;2022-07-12T10:04:52;24.60;99.90
25436;DHT22;13363;52.772;-3.890;2022-07-12T10:07:19;24.60;99.90
25436;DHT22;13363;52.772;-3.890;2022-07-12T10:09:47;24.40;99.90
25436;DHT22;13363;52.772;-3.890;2022-07-12T10:12:19;24.50;99.90
25436;DHT22;13363;52.772;-3.890;2022-07-12T10:14:45;24.50;99.90
25436;DHT22;13363;52.772;-3.890;2022-07-12T10:17:13;24.50;99.90
25436;DHT22;13363;52.772;-3.890;2022-07-12T10:19:39;24.20;99.90
25436;DHT22;13363;52.772;-3.890;2022-07-12T10:22:17;24.10;99.90
25436;DHT22;13363;52.772;-3.890;2022-07-12T10:24:46;24.10;99.90
25436;DHT22;13363;52.772;-3.890;2022-07-12T10:29:41;24.50;99.90
25436;DHT22;13363;52.772;-3.890;2022-07-12T10:32:26;24.60;99.90
25436;DHT22;13363;52.772;-3.890;2022-07-12T10:35:18;24.40;99.90
25436;DHT22;13363;52.772;-3.890;2022-07-12T10:38:17;24.00;99.90
25436;DHT22;13363;52.772;-3.890;2022-07-12T10:40:45;24.20;99.90
25436;DHT22;13363;52.772;-3.890;2022-07-12T10:43:12;24.10;99.90
25436;DHT22;13363;52.772;-3.890;2022-07-12T10:45:40;24.10;99.90
25436;DHT22;13363;52.772;-3.890;2022-07-12T10:48:24;24.00;99.90
25436;DHT22;13363;52.772;-3.890;2022-07-12T10:50:52;24.20;99.90
25436;DHT22;13363;52.772;-3.890;2022-07-12T11:01:27;24.80;99.90
25436;DHT22;13363;52.772;-3.890;2022-07-12T11:04:07;24.70;99.90
25436;DHT22;13363;52.772;-3.890;2022-07-12T11:06:40;24.80;99.90
25436;DHT22;13363;52.772;-3.890;2022-07-12T11:09:10;24.60;99.90
25436;DHT22;13363;52.772;-3.890;2022-07-12T11:11:44;24.40;99.90
25436;DHT22;13363;52.772;-3.890;2022-07-12T11:14:11;24.20;99.90
25436;DHT22;13363;52.772;-3.890;2022-07-12T11:16:44;24.10;99.90
25436;DHT22;13363;52.772;-3.890;2022-07-12T11:19:11;24.20;99.90
25436;DHT22;13363;52.772;-3.890;2022-07-12T11:21:37;24.20;99.90
25436;DHT22;13363;52.772;-3.890;2022-07-12T11:24:15;23.90;99.90
25436;DHT22;13363;52.772;-3.890;2022-07-12T11:26:42;24.00;99.90
25436;DHT22;13363;52.772;-3.890;2022-07-12T11:29:08;23.80;99.90
25436;DHT22;13363;52.772;-3.890;2022-07-12T11:31:35;23.70;99.90
25436;DHT22;13363;52.772;-3.890;2022-07-12T11:34:02;23.50;99.90
25436;DHT22;13363;52.772;-3.890;2022-07-12T11:36:29;23.60;99.90
25436;DHT22;13363;52.772;-3.890;2022-07-12T11:38:56;23.70;99.90
25436;DHT22;13363;52.772;-3.890;2022-07-12T11:41:22;23.90;99.90
25436;DHT22;13363;52.772;-3.890;2022-07-12T11:43:50;24.10;99.90
25436;DHT22;13363;52.772;-3.890;2022-07-12T11:46:16;24.20;99.90
25436;DHT22;13363;52.772;-3.890;2022-07-12T11:48:43;24.40;99.90
25436;DHT22;13363;52.772;-3.890;2022-07-12T11:51:12;24.50;99.90
25436;DHT22;13363;52.772;-3.890;2022-07-12T11:53:39;24.50;99.90
25436;DHT22;13363;52.772;-3.890;2022-07-12T11:56:08;24.60;99.90
25436;DHT22;13363;52.772;-3.890;2022-07-12T11:58:34;24.90;99.90
25436;DHT22;13363;52.772;-3.890;2022-07-12T12:01:04;25.00;99.90
25436;DHT22;13363;52.772;-3.890;2022-07-12T12:03:42;25.00;99.90
25436;DHT22;13363;52.772;-3.890;2022-07-12T12:06:10;24.80;99.90
25436;DHT22;13363;52.772;-3.890;2022-07-12T12:08:36;24.80;99.90
25436;DHT22;13363;52.772;-3.890;2022-07-12T12:11:02;24.60;99.90
25436;DHT22;13363;52.772;-3.890;2022-07-12T12:13:29;24.40;99.90
25436;DHT22;13363;52.772;-3.890;2022-07-12T12:16:00;24.60;99.90
25436;DHT22;13363;52.772;-3.890;2022-07-12T12:18:32;24.80;99.90
25436;DHT22;13363;52.772;-3.890;2022-07-12T12:21:00;25.10;99.90
25436;DHT22;13363;52.772;-3.890;2022-07-12T12:23:26;25.00;99.90
25436;DHT22;13363;52.772;-3.890;2022-07-12T12:25:53;24.80;99.90
25436;DHT22;13363;52.772;-3.890;2022-07-12T12:28:49;24.80;99.90
25436;DHT22;13363;52.772;-3.890;2022-07-12T12:31:17;25.00;99.90
25436;DHT22;13363;52.772;-3.890;2022-07-12T12:33:44;25.00;99.90
25436;DHT22;13363;52.772;-3.890;2022-07-12T12:36:23;25.20;99.90
25436;DHT22;13363;52.772;-3.890;2022-07-12T12:41:20;25.20;99.90
25436;DHT22;13363;52.772;-3.890;2022-07-12T12:43:55;25.00;99.90
25436;DHT22;13363;52.772;-3.890;2022-07-12T12:46:22;24.90;99.90
25436;DHT22;13363;52.772;-3.890;2022-07-12T12:48:48;24.90;99.90
25436;DHT22;13363;52.772;-3.890;2022-07-12T12:51:14;25.00;99.90
25436;DHT22;13363;52.772;-3.890;2022-07-12T12:53:41;24.80;99.90
25436;DHT22;13363;52.772;-3.890;2022-07-12T12:56:10;24.90;99.90
25436;DHT22;13363;52.772;-3.890;2022-07-12T12:58:38;24.60;99.90
25436;DHT22;13363;52.772;-3.890;2022-07-12T13:01:04;24.50;99.90
25436;DHT22;13363;52.772;-3.890;2022-07-12T13:03:31;24.60;99.90
25436;DHT22;13363;52.772;-3.890;2022-07-12T13:05:57;24.80;99.90
25436;DHT22;13363;52.772;-3.890;2022-07-12T13:08:24;24.80;99.90
25436;DHT22;13363;52.772;-3.890;2022-07-12T13:10:51;24.80;99.90
25436;DHT22;13363;52.772;-3.890;2022-07-12T13:13:38;24.80;99.90
25436;DHT22;13363;52.772;-3.890;2022-07-12T13:16:04;24.70;99.90
25436;DHT22;13363;52.772;-3.890;2022-07-12T13:18:30;24.40;99.90
25436;DHT22;13363;52.772;-3.890;2022-07-12T13:20:56;24.40;99.90
25436;DHT22;13363;52.772;-3.890;2022-07-12T13:23:22;24.60;99.90
25436;DHT22;13363;52.772;-3.890;2022-07-12T13:25:48;25.10;99.90
25436;DHT22;13363;52.772;-3.890;2022-07-12T13:28:14;25.40;99.90
25436;DHT22;13363;52.772;-3.890;2022-07-12T13:30:40;25.90;99.90
25436;DHT22;13363;52.772;-3.890;2022-07-12T13:33:06;26.10;99.90
25436;DHT22;13363;52.772;-3.890;2022-07-12T13:35:32;26.20;99.90
25436;DHT22;13363;52.772;-3.890;2022-07-12T13:37:58;26.00;99.90
25436;DHT22;13363;52.772;-3.890;2022-07-12T13:40:23;25.70;99.90
25436;DHT22;13363;52.772;-3.890;2022-07-12T13:42:52;25.70;99.90
25436;DHT22;13363;52.772;-3.890;2022-07-12T13:45:20;25.60;99.90
25436;DHT22;13363;52.772;-3.890;2022-07-12T13:47:47;25.60;99.90
25436;DHT22;13363;52.772;-3.890;2022-07-12T13:50:15;25.30;99.90
25436;DHT22;13363;52.772;-3.890;2022-07-12T13:52:42;25.50;99.90
25436;DHT22;13363;52.772;-3.890;2022-07-12T13:55:09;25.40;99.90
25436;DHT22;13363;52.772;-3.890;2022-07-12T13:57:38;25.40;99.90
25436;DHT22;13363;52.772;-3.890;2022-07-12T14:00:17;25.70;99.90
25436;DHT22;13363;52.772;-3.890;2022-07-12T14:02:50;25.90;99.90
25436;DHT22;13363;52.772;-3.890;2022-07-12T14:05:20;26.30;99.90
25436;DHT22;13363;52.772;-3.890;2022-07-12T14:07:48;26.30;99.90
25436;DHT22;13363;52.772;-3.890;2022-07-12T14:10:15;25.90;99.90
25436;DHT22;13363;52.772;-3.890;2022-07-12T14:12:42;25.90;99.90
25436;DHT22;13363;52.772;-3.890;2022-07-12T14:15:10;25.80;99.90
25436;DHT22;13363;52.772;-3.890;2022-07-12T14:17:37;25.90;99.90
25436;DHT22;13363;52.772;-3.890;2022-07-12T14:20:04;25.90;99.90
25436;DHT22;13363;52.772;-3.890;2022-07-12T14:22:30;25.70;99.90
25436;DHT22;13363;52.772;-3.890;2022-07-12T14:24:56;25.70;99.90
25436;DHT22;13363;52.772;-3.890;2022-07-12T14:27:22;25.70;99.90
25436;DHT22;13363;52.772;-3.890;2022-07-12T14:29:48;25.60;99.90
25436;DHT22;13363;52.772;-3.890;2022-07-12T14:32:14;25.50;99.90
25436;DHT22;13363;52.772;-3.890;2022-07-12T14:34:42;25.60;99.90
25436;DHT22;13363;52.772;-3.890;2022-07-12T14:37:08;25.60;99.90
25436;DHT22;13363;52.772;-3.890;2022-07-12T14:39:35;25.70;99.90
25436;DHT22;13363;52.772;-3.890;2022-07-12T14:42:01;25.70;99.90
25436;DHT22;13363;52.772;-3.890;2022-07-12T14:44:27;25.90;99.90
25436;DHT22;13363;52.772;-3.890;2022-07-12T14:46:53;25.50;99.90
25436;DHT22;13363;52.772;-3.890;2022-07-12T14:49:20;25.50;99.90
25436;DHT22;13363;52.772;-3.890;2022-07-12T14:51:47;25.50;99.90
25436;DHT22;13363;52.772;-3.890;2022-07-12T14:54:13;25.40;99.90
25436;DHT22;13363;52.772;-3.890;2022-07-12T14:56:39;25.30;99.90
25436;DHT22;13363;52.772;-3.890;2022-07-12T14:59:05;25.30;99.90
25436;DHT22;13363;52.772;-3.890;2022-07-12T15:01:32;25.40;99.90
25436;DHT22;13363;52.772;-3.890;2022-07-12T15:03:58;25.50;99.90
25436;DHT22;13363;52.772;-3.890;2022-07-12T15:06:24;25.70;99.90
25436;DHT22;13363;52.772;-3.890;2022-07-12T15:08:53;25.80;99.90
25436;DHT22;13363;52.772;-3.890;2022-07-12T15:11:20;25.90;99.90
25436;DHT22;13363;52.772;-3.890;2022-07-12T15:13:46;25.90;99.90
25436;DHT22;13363;52.772;-3.890;2022-07-12T15:16:13;25.60;99.90
25436;DHT22;13363;52.772;-3.890;2022-07-12T15:18:39;25.50;99.90
25436;DHT22;13363;52.772;-3.890;2022-07-12T15:21:06;25.00;99.90
25436;DHT22;13363;52.772;-3.890;2022-07-12T15:23:33;24.80;99.90
25436;DHT22;13363;52.772;-3.890;2022-07-12T15:25:59;24.40;99.90
25436;DHT22;13363;52.772;-3.890;2022-07-12T15:28:25;24.50;99.90
25436;DHT22;13363;52.772;-3.890;2022-07-12T15:30:51;24.60;99.90
25436;DHT22;13363;52.772;-3.890;2022-07-12T15:33:17;24.60;99.90
25436;DHT22;13363;52.772;-3.890;2022-07-12T15:35:43;24.80;99.90
25436;DHT22;13363;52.772;-3.890;2022-07-12T15:38:10;25.00;99.90
25436;DHT22;13363;52.772;-3.890;2022-07-12T15:40:37;25.00;99.90